sensor_id;sensor_type;location;lat;lon;timestamp;temperature;humidity
18388;DHT22;9320;50.256;19.026;2022-10-31T00:01:32;13.80;99.90
18388;DHT22;9320;50.256;19.026;2022-10-31T00:04:01;13.70;99.90
18388;DHT22;9320;50.256;19.026;2022-10-31T00:06:29;13.70;99.90
18388;DHT22;9320;50.256;19.026;2022-10-31T00:09:00;13.70;99.90
18388;DHT22;9320;50.256;19.026;2022-10-31T00:11:28;13.70;99.90
18388;DHT22;9320;50.256;19.026;2022-10-31T00:13:57;13.60;99.90
18388;DHT22;9320;50.256;19.026;2022-10-31T00:16:25;13.60;99.90
18388;DHT22;9320;50.256;19.026;2022-10-31T00:18:55;13.60;99.90
18388;DHT22;9320;50.256;19.026;2022-10-31T00:21:24;13.50;99.90
18388;DHT22;9320;50.256;19.026;2022-10-31T00:23:54;13.50;99.90
18388;DHT22;9320;50.256;19.026;2022-10-31T00:26:23;13.50;99.90
18388;DHT22;9320;50.256;19.026;2022-10-31T00:28:51;13.40;99.90
18388;DHT22;9320;50.256;19.026;2022-10-31T00:31:19;13.30;99.90
18388;DHT22;9320;50.256;19.026;2022-10-31T00:33:47;13.30;99.90
18388;DHT22;9320;50.256;19.026;2022-10-31T00:36:17;13.30;99.90
18388;DHT22;9320;50.256;19.026;2022-10-31T00:38:46;13.30;99.90
18388;DHT22;9320;50.256;19.026;2022-10-31T00:41:16;13.20;99.90
18388;DHT22;9320;50.256;19.026;2022-10-31T00:43:46;13.10;99.90
18388;DHT22;9320;50.256;19.026;2022-10-31T00:46:14;13.20;99.90
18388;DHT22;9320;50.256;19.026;2022-10-31T00:48:42;13.10;99.90
18388;DHT22;9320;50.256;19.026;2022-10-31T00:51:10;13.10;99.90
18388;DHT22;9320;50.256;19.026;2022-10-31T00:53:38;13.10;99.90
18388;DHT22;9320;50.256;19.026;2022-10-31T00:56:07;13.10;99.90
18388;DHT22;9320;50.256;19.026;2022-10-31T00:58:35;13.10;99.90
18388;DHT22;9320;50.256;19.026;2022-10-31T01:01:04;13.20;99.90
18388;DHT22;9320;50.256;19.026;2022-10-31T01:03:33;13.10;99.90
18388;DHT22;9320;50.256;19.026;2022-10-31T01:06:03;13.10;99.90
18388;DHT22;9320;50.256;19.026;2022-10-31T01:08:32;13.10;99.90
18388;DHT22;9320;50.256;19.026;2022-10-31T01:11:02;13.10;99.90
18388;DHT22;9320;50.256;19.026;2022-10-31T01:13:31;13.00;99.90
18388;DHT22;9320;50.256;19.026;2022-10-31T01:16:00;13.00;99.90
18388;DHT22;9320;50.256;19.026;2022-10-31T01:18:29;13.00;99.90
18388;DHT22;9320;50.256;19.026;2022-10-31T01:20:59;13.00;99.90
18388;DHT22;9320;50.256;19.026;2022-10-31T01:23:28;13.10;99.90
18388;DHT22;9320;50.256;19.026;2022-10-31T01:26:04;13.10;99.90
18388;DHT22;9320;50.256;19.026;2022-10-31T01:28:33;13.10;99.90
18388;DHT22;9320;50.256;19.026;2022-10-31T01:31:03;13.00;99.90
18388;DHT22;9320;50.256;19.026;2022-10-31T01:33:32;12.90;99.90
18388;DHT22;9320;50.256;19.026;2022-10-31T01:36:01;12.80;99.90
18388;DHT22;9320;50.256;19.026;2022-10-31T01:38:30;12.80;99.90
18388;DHT22;9320;50.256;19.026;2022-10-31T01:40:58;12.90;99.90
18388;DHT22;9320;50.256;19.026;2022-10-31T01:43:42;12.80;99.90
18388;DHT22;9320;50.256;19.026;2022-10-31T01:46:10;12.80;99.90
18388;DHT22;9320;50.256;19.026;2022-10-31T01:48:40;12.80;99.90
18388;DHT22;9320;50.256;19.026;2022-10-31T01:51:10;12.70;99.90
18388;DHT22;9320;50.256;19.026;2022-10-31T01:53:40;12.70;99.90
18388;DHT22;9320;50.256;19.026;2022-10-31T01:56:10;12.60;99.90
18388;DHT22;9320;50.256;19.026;2022-10-31T01:58:39;12.60;99.90
18388;DHT22;9320;50.256;19.026;2022-10-31T02:01:07;12.50;99.90
18388;DHT22;9320;50.256;19.026;2022-10-31T02:03:35;12.50;99.90
18388;DHT22;9320;50.256;19.026;2022-10-31T02:06:07;12.40;99.90
18388;DHT22;9320;50.256;19.026;2022-10-31T02:08:39;12.40;99.90
18388;DHT22;9320;50.256;19.026;2022-10-31T02:11:08;12.40;99.90
18388;DHT22;9320;50.256;19.026;2022-10-31T02:13:37;12.40;99.90
18388;DHT22;9320;50.256;19.026;2022-10-31T02:16:08;12.50;99.90
18388;DHT22;9320;50.256;19.026;2022-10-31T02:18:36;12.50;99.90
18388;DHT22;9320;50.256;19.026;2022-10-31T02:21:13;12.50;99.90
18388;DHT22;9320;50.256;19.026;2022-10-31T02:24:19;12.50;99.90
18388;DHT22;9320;50.256;19.026;2022-10-31T02:27:09;12.50;99.90
18388;DHT22;9320;50.256;19.026;2022-10-31T02:30:03;12.50;99.90
18388;DHT22;9320;50.256;19.026;2022-10-31T02:32:46;12.60;99.90
18388;DHT22;9320;50.256;19.026;2022-10-31T02:35:26;12.50;99.90
18388;DHT22;9320;50.256;19.026;2022-10-31T02:38:00;12.50;99.90
18388;DHT22;9320;50.256;19.026;2022-10-31T02:40:33;12.50;99.90
18388;DHT22;9320;50.256;19.026;2022-10-31T02:43:06;12.50;99.90
18388;DHT22;9320;50.256;19.026;2022-10-31T02:45:43;12.50;99.90
18388;DHT22;9320;50.256;19.026;2022-10-31T02:48:17;12.50;99.90
18388;DHT22;9320;50.256;19.026;2022-10-31T02:50:51;12.50;99.90
18388;DHT22;9320;50.256;19.026;2022-10-31T02:53:21;12.50;99.90
18388;DHT22;9320;50.256;19.026;2022-10-31T02:55:55;12.40;99.90
18388;DHT22;9320;50.256;19.026;2022-10-31T02:58:26;12.30;99.90
18388;DHT22;9320;50.256;19.026;2022-10-31T03:04:03;12.30;99.90
18388;DHT22;9320;50.256;19.026;2022-10-31T03:06:38;12.20;99.90
18388;DHT22;9320;50.256;19.026;2022-10-31T03:09:14;12.20;99.90
18388;DHT22;9320;50.256;19.026;2022-10-31T03:11:46;12.20;99.90
18388;DHT22;9320;50.256;19.026;2022-10-31T03:14:19;12.20;99.90
18388;DHT22;9320;50.256;19.026;2022-10-31T03:16:50;12.20;99.90
18388;DHT22;9320;50.256;19.026;2022-10-31T03:19:24;12.20;99.90
18388;DHT22;9320;50.256;19.026;2022-10-31T03:21:55;12.20;99.90
18388;DHT22;9320;50.256;19.026;2022-10-31T03:24:28;12.20;99.90
18388;DHT22;9320;50.256;19.026;2022-10-31T03:26:58;12.10;99.90
18388;DHT22;9320;50.256;19.026;2022-10-31T03:29:29;12.10;99.90
18388;DHT22;9320;50.256;19.026;2022-10-31T03:32:01;12.00;99.90
18388;DHT22;9320;50.256;19.026;2022-10-31T03:34:32;12.00;99.90
18388;DHT22;9320;50.256;19.026;2022-10-31T03:37:04;12.00;99.90
18388;DHT22;9320;50.256;19.026;2022-10-31T03:39:33;11.80;99.90
18388;DHT22;9320;50.256;19.026;2022-10-31T03:42:05;11.60;99.90
18388;DHT22;9320;50.256;19.026;2022-10-31T03:44:35;11.60;99.90
18388;DHT22;9320;50.256;19.026;2022-10-31T03:47:05;11.50;99.90
18388;DHT22;9320;50.256;19.026;2022-10-31T03:49:35;11.40;99.90
18388;DHT22;9320;50.256;19.026;2022-10-31T03:52:08;11.40;99.90
18388;DHT22;9320;50.256;19.026;2022-10-31T03:54:42;11.30;99.90
18388;DHT22;9320;50.256;19.026;2022-10-31T03:57:16;11.40;99.90
18388;DHT22;9320;50.256;19.026;2022-10-31T03:59:50;11.50;99.90
18388;DHT22;9320;50.256;19.026;2022-10-31T04:02:26;11.50;99.90
18388;DHT22;9320;50.256;19.026;2022-10-31T04:04:58;11.60;99.90
18388;DHT22;9320;50.256;19.026;2022-10-31T04:07:28;11.60;99.90
18388;DHT22;9320;50.256;19.026;2022-10-31T04:09:59;11.60;99.90
18388;DHT22;9320;50.256;19.026;2022-10-31T04:12:29;11.60;99.90
18388;DHT22;9320;50.256;19.026;2022-10-31T04:14:59;11.60;99.90
18388;DHT22;9320;50.256;19.026;2022-10-31T04:17:30;11.60;99.90
18388;DHT22;9320;50.256;19.026;2022-10-31T04:20:01;11.50;99.90
18388;DHT22;9320;50.256;19.026;2022-10-31T04:22:29;11.60;99.90
18388;DHT22;9320;50.256;19.026;2022-10-31T04:24:57;11.70;99.90
18388;DHT22;9320;50.256;19.026;2022-10-31T04:27:25;11.50;99.90
18388;DHT22;9320;50.256;19.026;2022-10-31T04:29:53;11.50;99.90
18388;DHT22;9320;50.256;19.026;2022-10-31T04:32:21;11.50;99.90
18388;DHT22;9320;50.256;19.026;2022-10-31T04:34:49;11.40;99.90
18388;DHT22;9320;50.256;19.026;2022-10-31T04:37:18;11.40;99.90
18388;DHT22;9320;50.256;19.026;2022-10-31T04:39:46;11.40;99.90
18388;DHT22;9320;50.256;19.026;2022-10-31T04:42:14;11.40;99.90
18388;DHT22;9320;50.256;19.026;2022-10-31T04:44:42;11.30;99.90
18388;DHT22;9320;50.256;19.026;2022-10-31T04:47:10;11.20;99.90
18388;DHT22;9320;50.256;19.026;2022-10-31T04:49:38;11.20;99.90
18388;DHT22;9320;50.256;19.026;2022-10-31T04:52:06;11.20;99.90
18388;DHT22;9320;50.256;19.026;2022-10-31T04:54:36;11.30;99.90
18388;DHT22;9320;50.256;19.026;2022-10-31T04:57:04;11.20;99.90
18388;DHT22;9320;50.256;19.026;2022-10-31T04:59:31;11.20;99.90
18388;DHT22;9320;50.256;19.026;2022-10-31T05:01:59;11.20;99.90
18388;DHT22;9320;50.256;19.026;2022-10-31T05:04:28;11.30;99.90
18388;DHT22;9320;50.256;19.026;2022-10-31T05:06:56;11.20;99.90
18388;DHT22;9320;50.256;19.026;2022-10-31T05:09:23;11.20;99.90
18388;DHT22;9320;50.256;19.026;2022-10-31T05:11:53;11.20;99.90
18388;DHT22;9320;50.256;19.026;2022-10-31T05:14:21;11.20;99.90
18388;DHT22;9320;50.256;19.026;2022-10-31T05:16:49;11.20;99.90
18388;DHT22;9320;50.256;19.026;2022-10-31T05:19:16;11.10;99.90
18388;DHT22;9320;50.256;19.026;2022-10-31T05:21:44;11.10;99.90
18388;DHT22;9320;50.256;19.026;2022-10-31T05:24:12;11.10;99.90
18388;DHT22;9320;50.256;19.026;2022-10-31T05:26:40;11.10;99.90
18388;DHT22;9320;50.256;19.026;2022-10-31T05:29:10;10.90;99.90
18388;DHT22;9320;50.256;19.026;2022-10-31T05:31:38;10.90;99.90
18388;DHT22;9320;50.256;19.026;2022-10-31T05:34:05;10.90;99.90
18388;DHT22;9320;50.256;19.026;2022-10-31T05:36:33;10.90;99.90
18388;DHT22;9320;50.256;19.026;2022-10-31T05:39:02;10.80;99.90
18388;DHT22;9320;50.256;19.026;2022-10-31T05:41:30;10.90;99.90
18388;DHT22;9320;50.256;19.026;2022-10-31T05:43:58;10.90;99.90
18388;DHT22;9320;50.256;19.026;2022-10-31T05:46:27;11.00;99.90
18388;DHT22;9320;50.256;19.026;2022-10-31T05:48:55;11.10;99.90
18388;DHT22;9320;50.256;19.026;2022-10-31T05:51:28;11.10;99.90
18388;DHT22;9320;50.256;19.026;2022-10-31T05:53:56;11.10;99.90
18388;DHT22;9320;50.256;19.026;2022-10-31T05:56:24;11.10;99.90
18388;DHT22;9320;50.256;19.026;2022-10-31T05:58:52;11.10;99.90
18388;DHT22;9320;50.256;19.026;2022-10-31T06:01:20;11.10;99.90
18388;DHT22;9320;50.256;19.026;2022-10-31T06:03:49;11.10;99.90
18388;DHT22;9320;50.256;19.026;2022-10-31T06:06:17;11.10;99.90
18388;DHT22;9320;50.256;19.026;2022-10-31T06:08:45;11.20;99.90
18388;DHT22;9320;50.256;19.026;2022-10-31T06:11:13;11.20;99.90
18388;DHT22;9320;50.256;19.026;2022-10-31T06:13:41;11.30;99.90
18388;DHT22;9320;50.256;19.026;2022-10-31T06:16:09;11.40;99.90
18388;DHT22;9320;50.256;19.026;2022-10-31T06:18:37;11.50;99.90
18388;DHT22;9320;50.256;19.026;2022-10-31T06:21:06;11.50;99.90
18388;DHT22;9320;50.256;19.026;2022-10-31T06:23:36;11.60;99.90
18388;DHT22;9320;50.256;19.026;2022-10-31T06:26:04;11.60;99.90
18388;DHT22;9320;50.256;19.026;2022-10-31T06:28:32;11.50;99.90
18388;DHT22;9320;50.256;19.026;2022-10-31T06:31:00;11.50;99.90
18388;DHT22;9320;50.256;19.026;2022-10-31T06:33:28;11.50;99.90
18388;DHT22;9320;50.256;19.026;2022-10-31T06:35:56;11.40;99.90
18388;DHT22;9320;50.256;19.026;2022-10-31T06:38:26;11.40;99.90
18388;DHT22;9320;50.256;19.026;2022-10-31T06:40:55;11.40;99.90
18388;DHT22;9320;50.256;19.026;2022-10-31T06:43:23;11.50;99.90
18388;DHT22;9320;50.256;19.026;2022-10-31T06:45:51;11.70;99.90
18388;DHT22;9320;50.256;19.026;2022-10-31T06:48:19;11.80;99.90
18388;DHT22;9320;50.256;19.026;2022-10-31T06:50:47;11.80;99.90
18388;DHT22;9320;50.256;19.026;2022-10-31T06:53:15;11.90;99.90
18388;DHT22;9320;50.256;19.026;2022-10-31T06:55:45;11.90;99.90
18388;DHT22;9320;50.256;19.026;2022-10-31T06:58:13;11.90;99.90
18388;DHT22;9320;50.256;19.026;2022-10-31T07:00:41;12.00;99.90
18388;DHT22;9320;50.256;19.026;2022-10-31T07:03:11;12.10;99.90
18388;DHT22;9320;50.256;19.026;2022-10-31T07:05:40;12.10;99.90
18388;DHT22;9320;50.256;19.026;2022-10-31T07:08:09;12.20;99.90
18388;DHT22;9320;50.256;19.026;2022-10-31T07:10:39;12.20;99.90
18388;DHT22;9320;50.256;19.026;2022-10-31T07:13:13;12.20;99.90
18388;DHT22;9320;50.256;19.026;2022-10-31T07:15:42;12.30;99.90
18388;DHT22;9320;50.256;19.026;2022-10-31T07:18:11;12.30;99.90
18388;DHT22;9320;50.256;19.026;2022-10-31T07:20:39;12.20;99.90
18388;DHT22;9320;50.256;19.026;2022-10-31T07:23:09;12.30;99.90
18388;DHT22;9320;50.256;19.026;2022-10-31T07:25:37;12.40;99.90
18388;DHT22;9320;50.256;19.026;2022-10-31T07:28:05;12.40;99.90
18388;DHT22;9320;50.256;19.026;2022-10-31T07:30:35;12.50;99.90
18388;DHT22;9320;50.256;19.026;2022-10-31T07:33:03;12.60;99.90
18388;DHT22;9320;50.256;19.026;2022-10-31T07:35:32;12.60;99.90
18388;DHT22;9320;50.256;19.026;2022-10-31T07:38:08;12.70;99.90
18388;DHT22;9320;50.256;19.026;2022-10-31T07:40:36;12.80;99.90
18388;DHT22;9320;50.256;19.026;2022-10-31T07:43:05;12.80;99.90
18388;DHT22;9320;50.256;19.026;2022-10-31T07:45:41;12.90;99.90
18388;DHT22;9320;50.256;19.026;2022-10-31T07:48:09;13.00;99.90
18388;DHT22;9320;50.256;19.026;2022-10-31T07:50:36;13.00;99.90
18388;DHT22;9320;50.256;19.026;2022-10-31T07:53:07;13.10;99.90
18388;DHT22;9320;50.256;19.026;2022-10-31T07:55:35;13.20;99.90
18388;DHT22;9320;50.256;19.026;2022-10-31T07:58:05;13.20;99.90
18388;DHT22;9320;50.256;19.026;2022-10-31T08:00:34;13.30;99.90
18388;DHT22;9320;50.256;19.026;2022-10-31T08:03:05;13.30;99.90
18388;DHT22;9320;50.256;19.026;2022-10-31T08:05:34;13.40;99.90
18388;DHT22;9320;50.256;19.026;2022-10-31T08:08:03;13.50;99.90
18388;DHT22;9320;50.256;19.026;2022-10-31T08:10:32;13.60;99.90
18388;DHT22;9320;50.256;19.026;2022-10-31T08:13:01;13.60;99.90
18388;DHT22;9320;50.256;19.026;2022-10-31T08:15:30;13.80;99.90
18388;DHT22;9320;50.256;19.026;2022-10-31T08:17:58;13.80;99.90
18388;DHT22;9320;50.256;19.026;2022-10-31T08:20:28;13.90;99.90
18388;DHT22;9320;50.256;19.026;2022-10-31T08:22:56;13.90;99.90
18388;DHT22;9320;50.256;19.026;2022-10-31T08:25:25;14.00;99.90
18388;DHT22;9320;50.256;19.026;2022-10-31T08:27:59;14.00;99.90
18388;DHT22;9320;50.256;19.026;2022-10-31T08:30:29;14.10;99.90
18388;DHT22;9320;50.256;19.026;2022-10-31T08:32:59;14.20;99.90
18388;DHT22;9320;50.256;19.026;2022-10-31T08:35:29;14.30;99.90
18388;DHT22;9320;50.256;19.026;2022-10-31T08:37:57;14.40;99.90
18388;DHT22;9320;50.256;19.026;2022-10-31T08:40:27;14.40;99.90
18388;DHT22;9320;50.256;19.026;2022-10-31T08:42:57;14.50;99.90
18388;DHT22;9320;50.256;19.026;2022-10-31T08:45:25;14.60;99.90
18388;DHT22;9320;50.256;19.026;2022-10-31T08:47:56;14.70;99.90
18388;DHT22;9320;50.256;19.026;2022-10-31T08:50:26;14.70;99.90
18388;DHT22;9320;50.256;19.026;2022-10-31T08:52:59;14.80;99.90
18388;DHT22;9320;50.256;19.026;2022-10-31T08:55:33;14.90;99.90
18388;DHT22;9320;50.256;19.026;2022-10-31T08:58:02;15.00;99.90
18388;DHT22;9320;50.256;19.026;2022-10-31T09:00:31;15.10;99.90
18388;DHT22;9320;50.256;19.026;2022-10-31T09:03:01;15.20;99.90
18388;DHT22;9320;50.256;19.026;2022-10-31T09:05:29;15.30;99.90
18388;DHT22;9320;50.256;19.026;2022-10-31T09:08:00;15.30;99.90
18388;DHT22;9320;50.256;19.026;2022-10-31T09:10:30;15.40;99.90
18388;DHT22;9320;50.256;19.026;2022-10-31T09:12:59;15.60;99.90
18388;DHT22;9320;50.256;19.026;2022-10-31T09:15:28;15.60;99.90
18388;DHT22;9320;50.256;19.026;2022-10-31T09:17:56;15.70;99.90
18388;DHT22;9320;50.256;19.026;2022-10-31T09:20:24;15.80;99.90
18388;DHT22;9320;50.256;19.026;2022-10-31T09:22:56;15.80;99.90
18388;DHT22;9320;50.256;19.026;2022-10-31T09:25:27;15.90;99.90
18388;DHT22;9320;50.256;19.026;2022-10-31T09:27:56;16.00;99.90
18388;DHT22;9320;50.256;19.026;2022-10-31T09:30:26;16.10;99.90
18388;DHT22;9320;50.256;19.026;2022-10-31T09:32:55;16.20;99.90
18388;DHT22;9320;50.256;19.026;2022-10-31T09:35:24;16.30;99.90
18388;DHT22;9320;50.256;19.026;2022-10-31T09:37:55;16.30;99.90
18388;DHT22;9320;50.256;19.026;2022-10-31T09:40:31;16.40;99.90
18388;DHT22;9320;50.256;19.026;2022-10-31T09:43:07;16.50;99.90
18388;DHT22;9320;50.256;19.026;2022-10-31T09:45:39;16.60;99.90
18388;DHT22;9320;50.256;19.026;2022-10-31T09:48:18;16.70;99.90
18388;DHT22;9320;50.256;19.026;2022-10-31T09:50:52;16.70;99.90
18388;DHT22;9320;50.256;19.026;2022-10-31T09:53:25;16.80;99.90
18388;DHT22;9320;50.256;19.026;2022-10-31T09:55:57;16.90;99.90
18388;DHT22;9320;50.256;19.026;2022-10-31T09:58:27;17.00;99.90
18388;DHT22;9320;50.256;19.026;2022-10-31T10:01:01;17.10;99.90
18388;DHT22;9320;50.256;19.026;2022-10-31T10:03:35;17.20;99.90
18388;DHT22;9320;50.256;19.026;2022-10-31T10:06:14;17.30;99.90
18388;DHT22;9320;50.256;19.026;2022-10-31T10:08:44;17.40;99.90
18388;DHT22;9320;50.256;19.026;2022-10-31T10:11:25;17.60;99.90
18388;DHT22;9320;50.256;19.026;2022-10-31T10:14:04;18.00;99.90
18388;DHT22;9320;50.256;19.026;2022-10-31T10:16:54;18.30;99.20
18388;DHT22;9320;50.256;19.026;2022-10-31T10:19:41;18.40;98.10
18388;DHT22;9320;50.256;19.026;2022-10-31T10:22:15;18.70;97.60
18388;DHT22;9320;50.256;19.026;2022-10-31T10:24:57;18.90;97.60
18388;DHT22;9320;50.256;19.026;2022-10-31T10:27:46;19.00;96.60
18388;DHT22;9320;50.256;19.026;2022-10-31T10:30:18;19.00;95.90
18388;DHT22;9320;50.256;19.026;2022-10-31T10:32:49;19.20;95.60
18388;DHT22;9320;50.256;19.026;2022-10-31T10:35:22;19.20;94.70
18388;DHT22;9320;50.256;19.026;2022-10-31T10:37:56;19.20;93.40
18388;DHT22;9320;50.256;19.026;2022-10-31T10:40:27;19.20;92.70
18388;DHT22;9320;50.256;19.026;2022-10-31T10:43:01;19.20;92.00
18388;DHT22;9320;50.256;19.026;2022-10-31T10:45:52;19.20;92.20
18388;DHT22;9320;50.256;19.026;2022-10-31T10:48:43;19.40;91.40
18388;DHT22;9320;50.256;19.026;2022-10-31T10:51:23;19.70;90.90
18388;DHT22;9320;50.256;19.026;2022-10-31T10:54:26;19.80;90.70
18388;DHT22;9320;50.256;19.026;2022-10-31T10:57:03;19.90;90.00
18388;DHT22;9320;50.256;19.026;2022-10-31T10:59:36;19.90;90.00
18388;DHT22;9320;50.256;19.026;2022-10-31T11:02:16;19.90;89.50
18388;DHT22;9320;50.256;19.026;2022-10-31T11:04:48;19.80;89.00
18388;DHT22;9320;50.256;19.026;2022-10-31T11:07:18;19.80;89.00
18388;DHT22;9320;50.256;19.026;2022-10-31T11:09:46;19.70;88.40
18388;DHT22;9320;50.256;19.026;2022-10-31T11:12:20;19.60;88.60
18388;DHT22;9320;50.256;19.026;2022-10-31T11:14:53;19.60;89.20
18388;DHT22;9320;50.256;19.026;2022-10-31T11:17:29;19.60;89.00
18388;DHT22;9320;50.256;19.026;2022-10-31T11:20:05;19.60;88.50
18388;DHT22;9320;50.256;19.026;2022-10-31T11:22:34;19.50;88.30
18388;DHT22;9320;50.256;19.026;2022-10-31T11:25:20;19.50;88.30
18388;DHT22;9320;50.256;19.026;2022-10-31T11:27:59;19.40;88.60
18388;DHT22;9320;50.256;19.026;2022-10-31T11:30:29;19.40;89.20
18388;DHT22;9320;50.256;19.026;2022-10-31T11:32:58;19.40;89.10
18388;DHT22;9320;50.256;19.026;2022-10-31T11:35:27;19.40;88.80
18388;DHT22;9320;50.256;19.026;2022-10-31T11:37:59;19.40;89.20
18388;DHT22;9320;50.256;19.026;2022-10-31T11:40:29;19.40;89.00
18388;DHT22;9320;50.256;19.026;2022-10-31T11:42:58;19.40;89.40
18388;DHT22;9320;50.256;19.026;2022-10-31T11:45:32;19.40;89.30
18388;DHT22;9320;50.256;19.026;2022-10-31T11:48:12;19.40;89.20
18388;DHT22;9320;50.256;19.026;2022-10-31T11:50:42;19.40;88.80
18388;DHT22;9320;50.256;19.026;2022-10-31T11:53:17;19.40;88.90
18388;DHT22;9320;50.256;19.026;2022-10-31T11:55:46;19.40;88.50
18388;DHT22;9320;50.256;19.026;2022-10-31T11:58:22;19.40;88.60
18388;DHT22;9320;50.256;19.026;2022-10-31T12:00:53;19.40;88.90
18388;DHT22;9320;50.256;19.026;2022-10-31T12:03:34;19.50;88.80
18388;DHT22;9320;50.256;19.026;2022-10-31T12:06:15;19.50;88.60
18388;DHT22;9320;50.256;19.026;2022-10-31T12:08:45;19.40;89.10
18388;DHT22;9320;50.256;19.026;2022-10-31T12:14:13;19.40;88.60
18388;DHT22;9320;50.256;19.026;2022-10-31T12:16:50;19.40;88.80
18388;DHT22;9320;50.256;19.026;2022-10-31T12:19:29;19.50;88.50
18388;DHT22;9320;50.256;19.026;2022-10-31T12:22:05;19.60;88.80
18388;DHT22;9320;50.256;19.026;2022-10-31T12:24:50;19.60;87.60
18388;DHT22;9320;50.256;19.026;2022-10-31T12:27:29;19.60;88.20
18388;DHT22;9320;50.256;19.026;2022-10-31T12:30:12;19.60;87.90
18388;DHT22;9320;50.256;19.026;2022-10-31T12:33:05;19.60;88.10
18388;DHT22;9320;50.256;19.026;2022-10-31T12:35:46;19.60;88.10
18388;DHT22;9320;50.256;19.026;2022-10-31T12:38:38;19.60;88.10
18388;DHT22;9320;50.256;19.026;2022-10-31T12:41:24;19.70;87.90
18388;DHT22;9320;50.256;19.026;2022-10-31T12:43:57;19.70;87.80
18388;DHT22;9320;50.256;19.026;2022-10-31T12:46:41;19.70;88.10
18388;DHT22;9320;50.256;19.026;2022-10-31T12:49:38;19.70;88.20
18388;DHT22;9320;50.256;19.026;2022-10-31T12:52:23;19.70;88.10
18388;DHT22;9320;50.256;19.026;2022-10-31T12:55:04;19.70;88.00
18388;DHT22;9320;50.256;19.026;2022-10-31T12:57:40;19.70;88.00
18388;DHT22;9320;50.256;19.026;2022-10-31T13:00:13;19.70;88.20
18388;DHT22;9320;50.256;19.026;2022-10-31T13:02:46;19.70;88.40
18388;DHT22;9320;50.256;19.026;2022-10-31T13:05:24;19.70;88.80
18388;DHT22;9320;50.256;19.026;2022-10-31T13:07:57;19.70;87.90
18388;DHT22;9320;50.256;19.026;2022-10-31T13:10:31;19.70;87.60
18388;DHT22;9320;50.256;19.026;2022-10-31T13:13:07;19.70;87.80
18388;DHT22;9320;50.256;19.026;2022-10-31T13:15:47;19.70;87.90
18388;DHT22;9320;50.256;19.026;2022-10-31T13:18:23;19.70;88.00
18388;DHT22;9320;50.256;19.026;2022-10-31T13:20:55;19.70;88.00
18388;DHT22;9320;50.256;19.026;2022-10-31T13:23:29;19.70;88.00
18388;DHT22;9320;50.256;19.026;2022-10-31T13:26:23;19.70;88.30
18388;DHT22;9320;50.256;19.026;2022-10-31T13:29:00;19.70;88.20
18388;DHT22;9320;50.256;19.026;2022-10-31T13:31:30;19.70;88.50
18388;DHT22;9320;50.256;19.026;2022-10-31T13:34:01;19.70;88.50
18388;DHT22;9320;50.256;19.026;2022-10-31T13:36:38;19.70;88.50
18388;DHT22;9320;50.256;19.026;2022-10-31T13:39:18;19.60;88.60
18388;DHT22;9320;50.256;19.026;2022-10-31T13:41:51;19.60;88.60
18388;DHT22;9320;50.256;19.026;2022-10-31T13:44:22;19.60;88.70
18388;DHT22;9320;50.256;19.026;2022-10-31T13:46:51;19.60;88.90
18388;DHT22;9320;50.256;19.026;2022-10-31T13:49:25;19.60;89.30
18388;DHT22;9320;50.256;19.026;2022-10-31T13:52:11;19.50;89.40
18388;DHT22;9320;50.256;19.026;2022-10-31T13:54:41;19.50;89.50
18388;DHT22;9320;50.256;19.026;2022-10-31T13:57:16;19.50;89.70
18388;DHT22;9320;50.256;19.026;2022-10-31T13:59:50;19.50;89.60
18388;DHT22;9320;50.256;19.026;2022-10-31T14:02:25;19.50;89.80
18388;DHT22;9320;50.256;19.026;2022-10-31T14:04:56;19.40;90.00
18388;DHT22;9320;50.256;19.026;2022-10-31T14:07:27;19.40;90.00
18388;DHT22;9320;50.256;19.026;2022-10-31T14:09:58;19.40;90.20
18388;DHT22;9320;50.256;19.026;2022-10-31T14:12:31;19.30;90.30
18388;DHT22;9320;50.256;19.026;2022-10-31T14:15:05;19.30;90.30
18388;DHT22;9320;50.256;19.026;2022-10-31T14:17:47;19.20;90.30
18388;DHT22;9320;50.256;19.026;2022-10-31T14:20:36;19.20;90.40
18388;DHT22;9320;50.256;19.026;2022-10-31T14:23:28;19.20;90.70
18388;DHT22;9320;50.256;19.026;2022-10-31T14:26:30;19.20;90.90
18388;DHT22;9320;50.256;19.026;2022-10-31T14:28:59;19.10;91.00
18388;DHT22;9320;50.256;19.026;2022-10-31T14:31:35;19.10;91.10
18388;DHT22;9320;50.256;19.026;2022-10-31T14:34:20;19.00;91.10
18388;DHT22;9320;50.256;19.026;2022-10-31T14:37:14;19.00;91.30
18388;DHT22;9320;50.256;19.026;2022-10-31T14:39:53;18.90;91.40
18388;DHT22;9320;50.256;19.026;2022-10-31T14:42:34;18.90;91.40
18388;DHT22;9320;50.256;19.026;2022-10-31T14:45:25;18.90;91.50
18388;DHT22;9320;50.256;19.026;2022-10-31T14:48:15;18.80;91.70
18388;DHT22;9320;50.256;19.026;2022-10-31T14:50:49;18.80;92.00
18388;DHT22;9320;50.256;19.026;2022-10-31T14:53:20;18.70;92.20
18388;DHT22;9320;50.256;19.026;2022-10-31T14:55:52;18.70;92.30
18388;DHT22;9320;50.256;19.026;2022-10-31T14:58:23;18.70;92.40
18388;DHT22;9320;50.256;19.026;2022-10-31T15:00:55;18.60;92.90
18388;DHT22;9320;50.256;19.026;2022-10-31T15:03:28;18.50;92.90
18388;DHT22;9320;50.256;19.026;2022-10-31T15:06:00;18.40;93.10
18388;DHT22;9320;50.256;19.026;2022-10-31T15:08:38;18.40;93.30
18388;DHT22;9320;50.256;19.026;2022-10-31T15:11:15;18.30;93.50
18388;DHT22;9320;50.256;19.026;2022-10-31T15:13:45;18.20;93.70
18388;DHT22;9320;50.256;19.026;2022-10-31T15:16:15;18.20;93.70
18388;DHT22;9320;50.256;19.026;2022-10-31T15:18:52;18.10;93.90
18388;DHT22;9320;50.256;19.026;2022-10-31T15:21:22;18.10;94.00
18388;DHT22;9320;50.256;19.026;2022-10-31T15:23:52;18.00;94.10
18388;DHT22;9320;50.256;19.026;2022-10-31T15:26:24;18.00;94.30
18388;DHT22;9320;50.256;19.026;2022-10-31T15:29:00;17.90;94.40
18388;DHT22;9320;50.256;19.026;2022-10-31T15:31:29;17.80;94.50
18388;DHT22;9320;50.256;19.026;2022-10-31T15:34:02;17.80;94.60
18388;DHT22;9320;50.256;19.026;2022-10-31T15:36:31;17.80;94.70
18388;DHT22;9320;50.256;19.026;2022-10-31T15:39:04;17.70;94.80
18388;DHT22;9320;50.256;19.026;2022-10-31T15:41:35;17.70;94.90
18388;DHT22;9320;50.256;19.026;2022-10-31T15:44:12;17.60;95.00
18388;DHT22;9320;50.256;19.026;2022-10-31T15:46:41;17.60;95.30
18388;DHT22;9320;50.256;19.026;2022-10-31T15:49:23;17.50;95.40
18388;DHT22;9320;50.256;19.026;2022-10-31T15:51:53;17.40;95.50
18388;DHT22;9320;50.256;19.026;2022-10-31T15:54:22;17.40;95.60
18388;DHT22;9320;50.256;19.026;2022-10-31T15:56:51;17.40;95.80
18388;DHT22;9320;50.256;19.026;2022-10-31T15:59:23;17.30;95.90
18388;DHT22;9320;50.256;19.026;2022-10-31T16:01:59;17.20;96.00
18388;DHT22;9320;50.256;19.026;2022-10-31T16:04:28;17.20;96.20
18388;DHT22;9320;50.256;19.026;2022-10-31T16:07:01;17.10;96.40
18388;DHT22;9320;50.256;19.026;2022-10-31T16:09:30;17.10;96.60